首页
METAR-TAF:

METAR-TAF

机场 :

富吉拉, 阿拉伯联合酋长国

纬度: 25-06N, 经度: 056-20E, 海拔: 28米

当前天气观测

该预报发布于15分钟前的10:00 UTC
风速10节,风向东转东南
温度 23°C
湿度 61%
气压 1018 hPa
能见度10公里或以上
少量云层高于2500英尺

METAR: OMFJ 191000Z 12010KT 9999 FEW025 23/15 Q1017 A3006

时间: 14:15 (10:15 UTC)

预报

该预报发布于5小时和15分钟前的05:00 UTC
预报有效从19日的 06点(UTC)到 20日的 12点(UTC)
风速8节,风向东转东南
能見度: 8000
少量云层高于3000英尺
成为
从 19日的 14点(UTC)到 19日的 16点(UTC)
风速3节,风向多变
成为
从 19日的 19点(UTC)到 19日的 21点(UTC)
风速6节,风向西转西北
成为
从 20日的 07点(UTC)到 20日的 09点(UTC)
风速8节,风向

TAF: OMFJ 190500Z 1906/2012 12008KT 8000 FEW030 BECMG 1914/1916 VRB03KT BECMG 1919/1921 30006KT BECMG 2007/2009 10008KT

超过4000个机场的气象观测和天气预报(METAR&TAF报告)。

可查询的气象台以黄色和红色小点在地图上表示。

将鼠标移到小点上方,可查看气象台名称。

然后点击查看天气观测和预报。

如需切换地图:点击带黑十字的绿色按钮放大地图;点击带横线的绿色按钮缩小地图;或者点击绿色箭头查看邻近地区的地图。


METAR-TAF: